sensor_id;sensor_type;location;lat;lon;timestamp;P1;P2;P0
77365;PMS5003;66430;50.182;11.704;2024-03-25T00:00:20;9;9;
77365;PMS5003;66430;50.182;11.704;2024-03-25T00:02:45;8;8;
77365;PMS5003;66430;50.182;11.704;2024-03-25T00:05:11;14;9;
77365;PMS5003;66430;50.182;11.704;2024-03-25T00:07:37;14;10;
77365;PMS5003;66430;50.182;11.704;2024-03-25T00:10:02;10;9;
77365;PMS5003;66430;50.182;11.704;2024-03-25T00:12:28;12;9;
77365;PMS5003;66430;50.182;11.704;2024-03-25T00:14:54;10;9;
77365;PMS5003;66430;50.182;11.704;2024-03-25T00:17:19;18;15;
77365;PMS5003;66430;50.182;11.704;2024-03-25T00:19:43;13;10;
77365;PMS5003;66430;50.182;11.704;2024-03-25T00:22:09;12;9;
77365;PMS5003;66430;50.182;11.704;2024-03-25T00:24:35;8;8;
77365;PMS5003;66430;50.182;11.704;2024-03-25T00:27:00;10;10;
77365;PMS5003;66430;50.182;11.704;2024-03-25T00:29:26;13;10;
77365;PMS5003;66430;50.182;11.704;2024-03-25T00:31:51;8;7;
77365;PMS5003;66430;50.182;11.704;2024-03-25T00:34:17;13;10;
77365;PMS5003;66430;50.182;11.704;2024-03-25T00:36:43;10;10;
77365;PMS5003;66430;50.182;11.704;2024-03-25T00:39:08;12;9;
77365;PMS5003;66430;50.182;11.704;2024-03-25T00:41:33;7;7;
77365;PMS5003;66430;50.182;11.704;2024-03-25T00:43:59;13;13;
77365;PMS5003;66430;50.182;11.704;2024-03-25T00:46:24;12;10;
77365;PMS5003;66430;50.182;11.704;2024-03-25T00:48:50;13;10;
77365;PMS5003;66430;50.182;11.704;2024-03-25T00:51:16;12;12;
77365;PMS5003;66430;50.182;11.704;2024-03-25T00:53:41;10;10;
77365;PMS5003;66430;50.182;11.704;2024-03-25T00:56:06;12;10;
77365;PMS5003;66430;50.182;11.704;2024-03-25T00:58:33;12;9;
77365;PMS5003;66430;50.182;11.704;2024-03-25T01:00:58;10;10;
77365;PMS5003;66430;50.182;11.704;2024-03-25T01:03:23;9;9;
77365;PMS5003;66430;50.182;11.704;2024-03-25T01:05:49;13;12;
77365;PMS5003;66430;50.182;11.704;2024-03-25T01:08:15;15;13;
77365;PMS5003;66430;50.182;11.704;2024-03-25T01:10:39;16;12;
77365;PMS5003;66430;50.182;11.704;2024-03-25T01:13:05;12;12;
77365;PMS5003;66430;50.182;11.704;2024-03-25T01:15:30;14;9;
77365;PMS5003;66430;50.182;11.704;2024-03-25T01:17:56;10;10;
77365;PMS5003;66430;50.182;11.704;2024-03-25T01:20:21;10;9;
77365;PMS5003;66430;50.182;11.704;2024-03-25T01:22:47;12;10;
77365;PMS5003;66430;50.182;11.704;2024-03-25T01:25:12;14;13;
77365;PMS5003;66430;50.182;11.704;2024-03-25T01:27:37;14;10;
77365;PMS5003;66430;50.182;11.704;2024-03-25T01:30:03;10;9;
77365;PMS5003;66430;50.182;11.704;2024-03-25T01:32:29;14;10;
77365;PMS5003;66430;50.182;11.704;2024-03-25T01:34:54;14;10;
77365;PMS5003;66430;50.182;11.704;2024-03-25T01:37:20;15;13;
77365;PMS5003;66430;50.182;11.704;2024-03-25T01:39:45;12;9;
77365;PMS5003;66430;50.182;11.704;2024-03-25T01:42:11;12;10;
77365;PMS5003;66430;50.182;11.704;2024-03-25T01:44:36;18;13;
77365;PMS5003;66430;50.182;11.704;2024-03-25T01:47:02;9;9;
77365;PMS5003;66430;50.182;11.704;2024-03-25T01:49:27;18;14;
77365;PMS5003;66430;50.182;11.704;2024-03-25T01:51:53;14;12;
77365;PMS5003;66430;50.182;11.704;2024-03-25T01:54:19;15;13;
77365;PMS5003;66430;50.182;11.704;2024-03-25T01:56:46;20;18;
77365;PMS5003;66430;50.182;11.704;2024-03-25T01:59:09;14;13;
77365;PMS5003;66430;50.182;11.704;2024-03-25T02:01:35;12;10;
77365;PMS5003;66430;50.182;11.704;2024-03-25T02:04:00;12;10;
77365;PMS5003;66430;50.182;11.704;2024-03-25T02:06:26;14;12;
77365;PMS5003;66430;50.182;11.704;2024-03-25T02:08:52;13;10;
77365;PMS5003;66430;50.182;11.704;2024-03-25T02:11:17;9;9;
77365;PMS5003;66430;50.182;11.704;2024-03-25T02:13:43;13;12;
77365;PMS5003;66430;50.182;11.704;2024-03-25T02:16:08;12;8;
77365;PMS5003;66430;50.182;11.704;2024-03-25T02:18:35;9;8;
77365;PMS5003;66430;50.182;11.704;2024-03-25T02:21:00;10;8;
77365;PMS5003;66430;50.182;11.704;2024-03-25T02:23:25;12;10;
77365;PMS5003;66430;50.182;11.704;2024-03-25T02:25:51;6;6;
77365;PMS5003;66430;50.182;11.704;2024-03-25T02:28:16;7;6;
77365;PMS5003;66430;50.182;11.704;2024-03-25T02:30:41;14;12;
77365;PMS5003;66430;50.182;11.704;2024-03-25T02:33:07;7;7;
77365;PMS5003;66430;50.182;11.704;2024-03-25T02:35:33;10;8;
77365;PMS5003;66430;50.182;11.704;2024-03-25T02:37:58;12;9;
77365;PMS5003;66430;50.182;11.704;2024-03-25T02:40:23;7;7;
77365;PMS5003;66430;50.182;11.704;2024-03-25T02:42:49;9;8;
77365;PMS5003;66430;50.182;11.704;2024-03-25T02:45:15;10;9;
77365;PMS5003;66430;50.182;11.704;2024-03-25T02:47:40;12;10;
77365;PMS5003;66430;50.182;11.704;2024-03-25T02:50:06;9;9;
77365;PMS5003;66430;50.182;11.704;2024-03-25T02:52:32;13;10;
77365;PMS5003;66430;50.182;11.704;2024-03-25T02:54:57;10;10;
77365;PMS5003;66430;50.182;11.704;2024-03-25T02:57:22;7;7;
77365;PMS5003;66430;50.182;11.704;2024-03-25T02:59:48;9;8;
77365;PMS5003;66430;50.182;11.704;2024-03-25T03:02:14;13;10;
77365;PMS5003;66430;50.182;11.704;2024-03-25T03:04:39;10;10;
77365;PMS5003;66430;50.182;11.704;2024-03-25T03:07:04;12;11;
77365;PMS5003;66430;50.182;11.704;2024-03-25T03:09:30;12;10;
77365;PMS5003;66430;50.182;11.704;2024-03-25T03:12:00;12;9;
77365;PMS5003;66430;50.182;11.704;2024-03-25T03:14:21;10;10;
77365;PMS5003;66430;50.182;11.704;2024-03-25T03:16:47;12;10;
77365;PMS5003;66430;50.182;11.704;2024-03-25T03:19:12;14;12;
77365;PMS5003;66430;50.182;11.704;2024-03-25T03:21:38;8;8;
77365;PMS5003;66430;50.182;11.704;2024-03-25T03:24:05;8;8;
77365;PMS5003;66430;50.182;11.704;2024-03-25T03:26:29;13;10;
77365;PMS5003;66430;50.182;11.704;2024-03-25T03:28:54;15;8;
77365;PMS5003;66430;50.182;11.704;2024-03-25T03:31:20;13;9;
77365;PMS5003;66430;50.182;11.704;2024-03-25T03:33:46;12;12;
77365;PMS5003;66430;50.182;11.704;2024-03-25T03:36:11;8;8;
77365;PMS5003;66430;50.182;11.704;2024-03-25T03:38:36;13;8;
77365;PMS5003;66430;50.182;11.704;2024-03-25T03:41:02;12;9;
77365;PMS5003;66430;50.182;11.704;2024-03-25T03:43:30;9;7;
77365;PMS5003;66430;50.182;11.704;2024-03-25T03:45:53;15;10;
77365;PMS5003;66430;50.182;11.704;2024-03-25T03:48:19;12;9;
77365;PMS5003;66430;50.182;11.704;2024-03-25T03:50:45;9;9;
77365;PMS5003;66430;50.182;11.704;2024-03-25T03:53:11;9;6;
77365;PMS5003;66430;50.182;11.704;2024-03-25T03:55:38;10;8;
77365;PMS5003;66430;50.182;11.704;2024-03-25T03:58:01;14;14;
77365;PMS5003;66430;50.182;11.704;2024-03-25T04:00:27;13;8;
77365;PMS5003;66430;50.182;11.704;2024-03-25T04:02:52;10;9;
77365;PMS5003;66430;50.182;11.704;2024-03-25T04:05:18;10;8;
77365;PMS5003;66430;50.182;11.704;2024-03-25T04:07:44;4;4;
77365;PMS5003;66430;50.182;11.704;2024-03-25T04:10:09;10;8;
77365;PMS5003;66430;50.182;11.704;2024-03-25T04:12:35;9;7;
77365;PMS5003;66430;50.182;11.704;2024-03-25T04:15:01;11;9;
77365;PMS5003;66430;50.182;11.704;2024-03-25T04:17:27;9;7;
77365;PMS5003;66430;50.182;11.704;2024-03-25T04:19:52;8;8;
77365;PMS5003;66430;50.182;11.704;2024-03-25T04:22:18;6;6;
77365;PMS5003;66430;50.182;11.704;2024-03-25T04:24:43;7;7;
77365;PMS5003;66430;50.182;11.704;2024-03-25T04:27:09;7;6;
77365;PMS5003;66430;50.182;11.704;2024-03-25T04:29:34;9;9;
77365;PMS5003;66430;50.182;11.704;2024-03-25T04:32:00;5;4;
77365;PMS5003;66430;50.182;11.704;2024-03-25T04:34:25;7;7;
77365;PMS5003;66430;50.182;11.704;2024-03-25T04:36:51;9;6;
77365;PMS5003;66430;50.182;11.704;2024-03-25T04:39:17;7;7;
77365;PMS5003;66430;50.182;11.704;2024-03-25T04:41:42;9;8;
77365;PMS5003;66430;50.182;11.704;2024-03-25T04:44:10;10;7;
77365;PMS5003;66430;50.182;11.704;2024-03-25T04:46:33;10;8;
77365;PMS5003;66430;50.182;11.704;2024-03-25T04:48:59;10;7;
77365;PMS5003;66430;50.182;11.704;2024-03-25T04:51:25;8;8;
77365;PMS5003;66430;50.182;11.704;2024-03-25T04:53:50;9;8;
77365;PMS5003;66430;50.182;11.704;2024-03-25T04:56:15;7;7;
77365;PMS5003;66430;50.182;11.704;2024-03-25T04:58:41;7;7;
77365;PMS5003;66430;50.182;11.704;2024-03-25T05:01:06;7;7;
77365;PMS5003;66430;50.182;11.704;2024-03-25T05:03:37;8;8;
77365;PMS5003;66430;50.182;11.704;2024-03-25T05:05:58;8;7;
77365;PMS5003;66430;50.182;11.704;2024-03-25T05:08:23;9;7;
77365;PMS5003;66430;50.182;11.704;2024-03-25T05:10:49;9;8;
77365;PMS5003;66430;50.182;11.704;2024-03-25T05:13:15;7;7;
77365;PMS5003;66430;50.182;11.704;2024-03-25T05:15:40;7;6;
77365;PMS5003;66430;50.182;11.704;2024-03-25T05:18:06;8;7;
77365;PMS5003;66430;50.182;11.704;2024-03-25T05:20:31;7;7;
77365;PMS5003;66430;50.182;11.704;2024-03-25T05:22:57;9;7;
77365;PMS5003;66430;50.182;11.704;2024-03-25T05:25:22;13;7;
77365;PMS5003;66430;50.182;11.704;2024-03-25T05:27:48;9;9;
77365;PMS5003;66430;50.182;11.704;2024-03-25T05:30:14;7;7;
77365;PMS5003;66430;50.182;11.704;2024-03-25T05:32:44;7;7;
77365;PMS5003;66430;50.182;11.704;2024-03-25T05:35:06;12;10;
77365;PMS5003;66430;50.182;11.704;2024-03-25T05:37:30;10;10;
77365;PMS5003;66430;50.182;11.704;2024-03-25T05:39:56;8;8;
77365;PMS5003;66430;50.182;11.704;2024-03-25T05:42:21;9;9;
77365;PMS5003;66430;50.182;11.704;2024-03-25T05:44:47;9;8;
77365;PMS5003;66430;50.182;11.704;2024-03-25T05:47:14;9;8;
77365;PMS5003;66430;50.182;11.704;2024-03-25T05:49:38;10;7;
77365;PMS5003;66430;50.182;11.704;2024-03-25T05:52:04;7;7;
77365;PMS5003;66430;50.182;11.704;2024-03-25T05:54:29;8;8;
77365;PMS5003;66430;50.182;11.704;2024-03-25T05:56:55;10;8;
77365;PMS5003;66430;50.182;11.704;2024-03-25T05:59:20;8;6;
77365;PMS5003;66430;50.182;11.704;2024-03-25T06:01:46;5;5;
77365;PMS5003;66430;50.182;11.704;2024-03-25T06:04:11;7;6;
77365;PMS5003;66430;50.182;11.704;2024-03-25T06:06:37;7;7;
77365;PMS5003;66430;50.182;11.704;2024-03-25T06:09:02;10;8;
77365;PMS5003;66430;50.182;11.704;2024-03-25T06:11:28;13;10;
77365;PMS5003;66430;50.182;11.704;2024-03-25T06:13:54;7;7;
77365;PMS5003;66430;50.182;11.704;2024-03-25T06:16:19;7;4;
77365;PMS5003;66430;50.182;11.704;2024-03-25T06:18:45;8;8;
77365;PMS5003;66430;50.182;11.704;2024-03-25T06:21:10;7;7;
77365;PMS5003;66430;50.182;11.704;2024-03-25T06:23:36;9;6;
77365;PMS5003;66430;50.182;11.704;2024-03-25T06:26:01;12;8;
77365;PMS5003;66430;50.182;11.704;2024-03-25T06:28:27;12;9;
77365;PMS5003;66430;50.182;11.704;2024-03-25T06:30:53;9;8;
77365;PMS5003;66430;50.182;11.704;2024-03-25T06:33:19;10;8;
77365;PMS5003;66430;50.182;11.704;2024-03-25T06:35:44;10;6;
77365;PMS5003;66430;50.182;11.704;2024-03-25T06:38:10;10;10;
77365;PMS5003;66430;50.182;11.704;2024-03-25T06:40:35;8;7;
77365;PMS5003;66430;50.182;11.704;2024-03-25T06:43:06;7;7;
77365;PMS5003;66430;50.182;11.704;2024-03-25T06:45:27;9;9;
77365;PMS5003;66430;50.182;11.704;2024-03-25T06:47:52;9;7;
77365;PMS5003;66430;50.182;11.704;2024-03-25T06:50:18;7;7;
77365;PMS5003;66430;50.182;11.704;2024-03-25T06:52:43;10;8;
77365;PMS5003;66430;50.182;11.704;2024-03-25T06:55:09;5;5;
77365;PMS5003;66430;50.182;11.704;2024-03-25T06:57:35;8;8;
77365;PMS5003;66430;50.182;11.704;2024-03-25T07:00:00;8;8;
77365;PMS5003;66430;50.182;11.704;2024-03-25T07:02:26;8;5;
77365;PMS5003;66430;50.182;11.704;2024-03-25T07:04:51;10;9;
77365;PMS5003;66430;50.182;11.704;2024-03-25T07:07:17;13;9;
77365;PMS5003;66430;50.182;11.704;2024-03-25T07:09:42;8;5;
77365;PMS5003;66430;50.182;11.704;2024-03-25T07:12:08;7;7;
77365;PMS5003;66430;50.182;11.704;2024-03-25T07:14:34;5;5;
77365;PMS5003;66430;50.182;11.704;2024-03-25T07:16:59;9;8;
77365;PMS5003;66430;50.182;11.704;2024-03-25T07:19:24;9;9;
77365;PMS5003;66430;50.182;11.704;2024-03-25T07:21:50;10;8;
77365;PMS5003;66430;50.182;11.704;2024-03-25T07:24:16;7;7;
77365;PMS5003;66430;50.182;11.704;2024-03-25T07:26:41;11;9;
77365;PMS5003;66430;50.182;11.704;2024-03-25T07:29:07;8;8;
77365;PMS5003;66430;50.182;11.704;2024-03-25T07:31:32;8;7;
77365;PMS5003;66430;50.182;11.704;2024-03-25T07:33:58;8;7;
77365;PMS5003;66430;50.182;11.704;2024-03-25T07:36:24;7;7;
77365;PMS5003;66430;50.182;11.704;2024-03-25T07:38:49;8;8;
77365;PMS5003;66430;50.182;11.704;2024-03-25T07:41:14;10;8;
77365;PMS5003;66430;50.182;11.704;2024-03-25T07:43:40;10;9;
77365;PMS5003;66430;50.182;11.704;2024-03-25T07:46:06;9;5;
77365;PMS5003;66430;50.182;11.704;2024-03-25T07:48:31;7;7;
77365;PMS5003;66430;50.182;11.704;2024-03-25T07:51:02;11;8;
77365;PMS5003;66430;50.182;11.704;2024-03-25T07:53:22;9;8;
77365;PMS5003;66430;50.182;11.704;2024-03-25T07:55:48;19;17;
77365;PMS5003;66430;50.182;11.704;2024-03-25T07:58:13;10;10;
77365;PMS5003;66430;50.182;11.704;2024-03-25T08:00:42;16;12;
77365;PMS5003;66430;50.182;11.704;2024-03-25T08:03:07;7;7;
77365;PMS5003;66430;50.182;11.704;2024-03-25T08:05:30;9;7;
77365;PMS5003;66430;50.182;11.704;2024-03-25T08:07:55;10;9;
77365;PMS5003;66430;50.182;11.704;2024-03-25T08:10:21;8;8;
77365;PMS5003;66430;50.182;11.704;2024-03-25T08:12:47;5;5;
77365;PMS5003;66430;50.182;11.704;2024-03-25T08:15:12;10;9;
77365;PMS5003;66430;50.182;11.704;2024-03-25T08:17:38;8;7;
77365;PMS5003;66430;50.182;11.704;2024-03-25T08:20:03;7;7;
77365;PMS5003;66430;50.182;11.704;2024-03-25T08:22:29;9;7;
77365;PMS5003;66430;50.182;11.704;2024-03-25T08:24:54;8;5;
77365;PMS5003;66430;50.182;11.704;2024-03-25T08:27:20;8;5;
77365;PMS5003;66430;50.182;11.704;2024-03-25T08:29:45;8;8;
77365;PMS5003;66430;50.182;11.704;2024-03-25T08:32:12;10;10;
77365;PMS5003;66430;50.182;11.704;2024-03-25T08:34:36;10;8;
77365;PMS5003;66430;50.182;11.704;2024-03-25T08:37:02;5;5;
77365;PMS5003;66430;50.182;11.704;2024-03-25T08:39:29;11;7;
77365;PMS5003;66430;50.182;11.704;2024-03-25T08:41:53;9;8;
77365;PMS5003;66430;50.182;11.704;2024-03-25T08:44:19;4;4;
77365;PMS5003;66430;50.182;11.704;2024-03-25T08:46:44;5;5;
77365;PMS5003;66430;50.182;11.704;2024-03-25T08:49:10;8;5;
77365;PMS5003;66430;50.182;11.704;2024-03-25T08:51:35;6;6;
77365;PMS5003;66430;50.182;11.704;2024-03-25T08:54:01;8;5;
77365;PMS5003;66430;50.182;11.704;2024-03-25T08:56:26;10;9;
77365;PMS5003;66430;50.182;11.704;2024-03-25T08:58:52;9;6;
77365;PMS5003;66430;50.182;11.704;2024-03-25T09:01:18;8;8;
77365;PMS5003;66430;50.182;11.704;2024-03-25T09:03:43;8;4;
77365;PMS5003;66430;50.182;11.704;2024-03-25T09:06:08;8;8;
77365;PMS5003;66430;50.182;11.704;2024-03-25T09:08:34;9;8;
77365;PMS5003;66430;50.182;11.704;2024-03-25T09:11:02;6;6;
77365;PMS5003;66430;50.182;11.704;2024-03-25T09:13:25;11;9;
77365;PMS5003;66430;50.182;11.704;2024-03-25T09:15:51;5;5;
77365;PMS5003;66430;50.182;11.704;2024-03-25T09:18:16;9;9;
77365;PMS5003;66430;50.182;11.704;2024-03-25T09:20:42;8;6;
77365;PMS5003;66430;50.182;11.704;2024-03-25T09:23:08;9;9;
77365;PMS5003;66430;50.182;11.704;2024-03-25T09:25:33;5;5;
77365;PMS5003;66430;50.182;11.704;2024-03-25T09:27:58;10;7;
77365;PMS5003;66430;50.182;11.704;2024-03-25T09:30:24;6;6;
77365;PMS5003;66430;50.182;11.704;2024-03-25T09:32:50;10;9;
77365;PMS5003;66430;50.182;11.704;2024-03-25T09:35:20;5;5;
77365;PMS5003;66430;50.182;11.704;2024-03-25T09:37:40;10;7;
77365;PMS5003;66430;50.182;11.704;2024-03-25T09:40:06;7;6;
77365;PMS5003;66430;50.182;11.704;2024-03-25T09:42:33;7;7;
77365;PMS5003;66430;50.182;11.704;2024-03-25T09:44:57;7;7;
77365;PMS5003;66430;50.182;11.704;2024-03-25T09:47:23;7;5;
77365;PMS5003;66430;50.182;11.704;2024-03-25T09:49:48;7;6;
77365;PMS5003;66430;50.182;11.704;2024-03-25T09:52:14;10;7;
77365;PMS5003;66430;50.182;11.704;2024-03-25T09:54:39;4;4;
77365;PMS5003;66430;50.182;11.704;2024-03-25T09:57:04;10;6;
77365;PMS5003;66430;50.182;11.704;2024-03-25T09:59:30;5;5;
77365;PMS5003;66430;50.182;11.704;2024-03-25T10:01:56;7;7;
77365;PMS5003;66430;50.182;11.704;2024-03-25T10:04:21;8;6;
77365;PMS5003;66430;50.182;11.704;2024-03-25T10:06:46;6;6;
77365;PMS5003;66430;50.182;11.704;2024-03-25T10:09:12;7;6;
77365;PMS5003;66430;50.182;11.704;2024-03-25T10:11:37;7;5;
77365;PMS5003;66430;50.182;11.704;2024-03-25T10:14:03;6;6;
77365;PMS5003;66430;50.182;11.704;2024-03-25T10:16:28;6;5;
77365;PMS5003;66430;50.182;11.704;2024-03-25T10:18:54;7;4;
77365;PMS5003;66430;50.182;11.704;2024-03-25T10:21:20;6;6;
77365;PMS5003;66430;50.182;11.704;2024-03-25T10:23:45;5;5;
77365;PMS5003;66430;50.182;11.704;2024-03-25T10:26:23;7;5;
77365;PMS5003;66430;50.182;11.704;2024-03-25T10:28:36;6;4;
77365;PMS5003;66430;50.182;11.704;2024-03-25T10:31:03;5;5;
77365;PMS5003;66430;50.182;11.704;2024-03-25T10:33:27;7;5;
77365;PMS5003;66430;50.182;11.704;2024-03-25T10:35:53;5;5;
77365;PMS5003;66430;50.182;11.704;2024-03-25T10:38:18;7;6;
77365;PMS5003;66430;50.182;11.704;2024-03-25T10:40:44;10;6;
77365;PMS5003;66430;50.182;11.704;2024-03-25T10:43:10;7;6;
77365;PMS5003;66430;50.182;11.704;2024-03-25T10:45:35;7;6;
77365;PMS5003;66430;50.182;11.704;2024-03-25T10:48:02;5;5;
77365;PMS5003;66430;50.182;11.704;2024-03-25T10:50:30;7;5;
77365;PMS5003;66430;50.182;11.704;2024-03-25T10:52:51;6;6;
77365;PMS5003;66430;50.182;11.704;2024-03-25T10:55:16;5;5;
77365;PMS5003;66430;50.182;11.704;2024-03-25T10:57:42;6;6;
77365;PMS5003;66430;50.182;11.704;2024-03-25T11:00:08;4;4;
77365;PMS5003;66430;50.182;11.704;2024-03-25T11:02:33;6;6;
77365;PMS5003;66430;50.182;11.704;2024-03-25T11:04:58;6;4;
77365;PMS5003;66430;50.182;11.704;2024-03-25T11:07:30;5;5;
77365;PMS5003;66430;50.182;11.704;2024-03-25T11:09:49;6;5;
77365;PMS5003;66430;50.182;11.704;2024-03-25T11:12:15;3;3;
77365;PMS5003;66430;50.182;11.704;2024-03-25T11:14:40;4;3;
77365;PMS5003;66430;50.182;11.704;2024-03-25T11:19:34;3;3;
77365;PMS5003;66430;50.182;11.704;2024-03-25T11:24:27;4;4;
77365;PMS5003;66430;50.182;11.704;2024-03-25T11:31:39;3;3;
77365;PMS5003;66430;50.182;11.704;2024-03-25T11:34:05;5;4;
77365;PMS5003;66430;50.182;11.704;2024-03-25T11:36:30;3;3;
77365;PMS5003;66430;50.182;11.704;2024-03-25T11:38:59;4;4;
77365;PMS5003;66430;50.182;11.704;2024-03-25T11:41:21;4;4;
77365;PMS5003;66430;50.182;11.704;2024-03-25T11:43:46;10;6;
77365;PMS5003;66430;50.182;11.704;2024-03-25T11:46:16;8;5;
77365;PMS5003;66430;50.182;11.704;2024-03-25T11:48:38;3;3;
77365;PMS5003;66430;50.182;11.704;2024-03-25T11:51:03;5;5;
77365;PMS5003;66430;50.182;11.704;2024-03-25T11:53:29;3;3;
77365;PMS5003;66430;50.182;11.704;2024-03-25T11:55:54;5;5;
77365;PMS5003;66430;50.182;11.704;2024-03-25T11:58:19;3;3;
77365;PMS5003;66430;50.182;11.704;2024-03-25T12:00:45;3;3;
77365;PMS5003;66430;50.182;11.704;2024-03-25T12:03:15;2;2;
77365;PMS5003;66430;50.182;11.704;2024-03-25T12:05:35;2;2;
77365;PMS5003;66430;50.182;11.704;2024-03-25T12:08:01;3;3;
77365;PMS5003;66430;50.182;11.704;2024-03-25T12:10:27;3;3;
77365;PMS5003;66430;50.182;11.704;2024-03-25T12:12:52;5;5;
77365;PMS5003;66430;50.182;11.704;2024-03-25T12:15:18;4;4;
77365;PMS5003;66430;50.182;11.704;2024-03-25T12:17:45;5;4;
77365;PMS5003;66430;50.182;11.704;2024-03-25T12:20:09;3;3;
77365;PMS5003;66430;50.182;11.704;2024-03-25T12:22:34;4;4;
77365;PMS5003;66430;50.182;11.704;2024-03-25T12:25:00;2;2;
77365;PMS5003;66430;50.182;11.704;2024-03-25T12:27:25;3;3;
77365;PMS5003;66430;50.182;11.704;2024-03-25T12:32:16;5;3;
77365;PMS5003;66430;50.182;11.704;2024-03-25T12:34:42;4;4;
77365;PMS5003;66430;50.182;11.704;2024-03-25T12:37:07;7;5;
77365;PMS5003;66430;50.182;11.704;2024-03-25T12:39:33;3;3;
77365;PMS5003;66430;50.182;11.704;2024-03-25T12:41:59;3;3;
77365;PMS5003;66430;50.182;11.704;2024-03-25T12:44:24;3;3;
77365;PMS5003;66430;50.182;11.704;2024-03-25T12:46:49;4;4;
77365;PMS5003;66430;50.182;11.704;2024-03-25T12:49:14;6;4;
77365;PMS5003;66430;50.182;11.704;2024-03-25T12:51:40;3;3;
77365;PMS5003;66430;50.182;11.704;2024-03-25T12:54:05;2;2;
77365;PMS5003;66430;50.182;11.704;2024-03-25T12:56:31;4;2;
77365;PMS5003;66430;50.182;11.704;2024-03-25T12:58:56;2;1;
77365;PMS5003;66430;50.182;11.704;2024-03-25T13:01:22;6;5;
77365;PMS5003;66430;50.182;11.704;2024-03-25T13:03:49;2;2;
77365;PMS5003;66430;50.182;11.704;2024-03-25T13:06:13;5;5;
77365;PMS5003;66430;50.182;11.704;2024-03-25T13:08:38;4;4;
77365;PMS5003;66430;50.182;11.704;2024-03-25T13:11:03;5;3;
77365;PMS5003;66430;50.182;11.704;2024-03-25T13:13:29;4;4;
77365;PMS5003;66430;50.182;11.704;2024-03-25T13:15:56;6;4;
77365;PMS5003;66430;50.182;11.704;2024-03-25T13:18:22;4;4;
77365;PMS5003;66430;50.182;11.704;2024-03-25T13:20:45;5;5;
77365;PMS5003;66430;50.182;11.704;2024-03-25T13:23:11;3;3;
77365;PMS5003;66430;50.182;11.704;2024-03-25T13:25:36;6;4;
77365;PMS5003;66430;50.182;11.704;2024-03-25T13:28:02;5;5;
77365;PMS5003;66430;50.182;11.704;2024-03-25T13:30:27;7;6;
77365;PMS5003;66430;50.182;11.704;2024-03-25T13:32:53;5;5;
77365;PMS5003;66430;50.182;11.704;2024-03-25T13:35:18;5;5;
77365;PMS5003;66430;50.182;11.704;2024-03-25T13:37:44;5;5;
77365;PMS5003;66430;50.182;11.704;2024-03-25T13:40:09;5;5;
77365;PMS5003;66430;50.182;11.704;2024-03-25T13:42:35;5;4;
77365;PMS5003;66430;50.182;11.704;2024-03-25T13:45:00;4;4;
77365;PMS5003;66430;50.182;11.704;2024-03-25T13:47:26;4;3;
77365;PMS5003;66430;50.182;11.704;2024-03-25T13:52:17;5;5;
77365;PMS5003;66430;50.182;11.704;2024-03-25T13:54:42;5;5;
77365;PMS5003;66430;50.182;11.704;2024-03-25T13:57:08;4;4;
77365;PMS5003;66430;50.182;11.704;2024-03-25T13:59:33;6;6;
77365;PMS5003;66430;50.182;11.704;2024-03-25T14:01:58;5;4;
77365;PMS5003;66430;50.182;11.704;2024-03-25T14:04:24;7;6;
77365;PMS5003;66430;50.182;11.704;2024-03-25T14:06:49;4;4;
77365;PMS5003;66430;50.182;11.704;2024-03-25T14:11:40;4;4;
77365;PMS5003;66430;50.182;11.704;2024-03-25T14:14:06;3;3;
77365;PMS5003;66430;50.182;11.704;2024-03-25T14:16:37;5;4;
77365;PMS5003;66430;50.182;11.704;2024-03-25T14:18:57;5;5;
77365;PMS5003;66430;50.182;11.704;2024-03-25T14:21:22;4;4;
77365;PMS5003;66430;50.182;11.704;2024-03-25T14:23:48;6;4;
77365;PMS5003;66430;50.182;11.704;2024-03-25T14:26:13;6;5;
77365;PMS5003;66430;50.182;11.704;2024-03-25T14:28:40;6;6;
77365;PMS5003;66430;50.182;11.704;2024-03-25T14:31:04;5;5;
77365;PMS5003;66430;50.182;11.704;2024-03-25T14:33:29;6;5;
77365;PMS5003;66430;50.182;11.704;2024-03-25T14:35:55;5;5;
77365;PMS5003;66430;50.182;11.704;2024-03-25T14:38:20;9;5;
77365;PMS5003;66430;50.182;11.704;2024-03-25T14:40:46;8;4;
77365;PMS5003;66430;50.182;11.704;2024-03-25T14:43:13;4;4;
77365;PMS5003;66430;50.182;11.704;2024-03-25T14:45:37;7;6;
77365;PMS5003;66430;50.182;11.704;2024-03-25T14:48:02;8;7;
77365;PMS5003;66430;50.182;11.704;2024-03-25T14:50:28;5;5;
77365;PMS5003;66430;50.182;11.704;2024-03-25T14:52:53;5;3;
77365;PMS5003;66430;50.182;11.704;2024-03-25T14:55:19;8;6;
77365;PMS5003;66430;50.182;11.704;2024-03-25T14:57:44;8;6;
77365;PMS5003;66430;50.182;11.704;2024-03-25T15:00:15;5;4;
77365;PMS5003;66430;50.182;11.704;2024-03-25T15:02:35;5;4;
77365;PMS5003;66430;50.182;11.704;2024-03-25T15:05:01;4;4;
77365;PMS5003;66430;50.182;11.704;2024-03-25T15:07:26;6;6;
77365;PMS5003;66430;50.182;11.704;2024-03-25T15:09:53;7;5;
77365;PMS5003;66430;50.182;11.704;2024-03-25T15:12:17;6;6;
77365;PMS5003;66430;50.182;11.704;2024-03-25T15:14:45;5;4;
77365;PMS5003;66430;50.182;11.704;2024-03-25T15:17:08;8;7;
77365;PMS5003;66430;50.182;11.704;2024-03-25T15:19:34;2;2;
77365;PMS5003;66430;50.182;11.704;2024-03-25T15:21:59;4;4;
77365;PMS5003;66430;50.182;11.704;2024-03-25T15:24:25;4;4;
77365;PMS5003;66430;50.182;11.704;2024-03-25T15:26:50;5;2;
77365;PMS5003;66430;50.182;11.704;2024-03-25T15:29:16;5;5;
77365;PMS5003;66430;50.182;11.704;2024-03-25T15:31:41;5;4;
77365;PMS5003;66430;50.182;11.704;2024-03-25T15:34:07;3;2;
77365;PMS5003;66430;50.182;11.704;2024-03-25T15:36:34;4;4;
77365;PMS5003;66430;50.182;11.704;2024-03-25T15:38:57;5;5;
77365;PMS5003;66430;50.182;11.704;2024-03-25T15:41:24;4;4;
77365;PMS5003;66430;50.182;11.704;2024-03-25T15:43:50;3;3;
77365;PMS5003;66430;50.182;11.704;2024-03-25T15:46:14;5;3;
77365;PMS5003;66430;50.182;11.704;2024-03-25T15:48:39;4;4;
77365;PMS5003;66430;50.182;11.704;2024-03-25T15:51:05;2;2;
77365;PMS5003;66430;50.182;11.704;2024-03-25T15:53:30;5;5;
77365;PMS5003;66430;50.182;11.704;2024-03-25T15:55:56;4;4;
77365;PMS5003;66430;50.182;11.704;2024-03-25T15:58:21;4;3;
77365;PMS5003;66430;50.182;11.704;2024-03-25T16:00:46;9;9;
77365;PMS5003;66430;50.182;11.704;2024-03-25T16:03:12;3;3;
77365;PMS5003;66430;50.182;11.704;2024-03-25T16:05:37;4;4;
77365;PMS5003;66430;50.182;11.704;2024-03-25T16:08:03;3;3;
77365;PMS5003;66430;50.182;11.704;2024-03-25T16:10:29;4;4;
77365;PMS5003;66430;50.182;11.704;2024-03-25T16:12:55;4;3;
77365;PMS5003;66430;50.182;11.704;2024-03-25T16:15:19;5;5;
77365;PMS5003;66430;50.182;11.704;2024-03-25T16:17:45;5;4;
77365;PMS5003;66430;50.182;11.704;2024-03-25T16:20:11;4;4;
77365;PMS5003;66430;50.182;11.704;2024-03-25T16:22:36;4;4;
77365;PMS5003;66430;50.182;11.704;2024-03-25T16:25:01;6;6;
77365;PMS5003;66430;50.182;11.704;2024-03-25T16:27:27;4;4;
77365;PMS5003;66430;50.182;11.704;2024-03-25T16:29:52;5;5;